NMSU Turfgrass Station

Feb. 28, 2020, 10 a.m.

  • imperial
Air Temperature RH Dewpoint Heat Index Wind Speed Wind Direction Precipitation Solar Radiation
Date Time Max Min Mean Max Min Max Mean Mean Total Total
US/Mountain F F F F % % % F F MPH MPH deg. deg. in. MJ/m^2
2020-02-27 10:00 45.52 45.52 38.57 42.17 18.48 30.2 18.37 4.98 45.52 7.7 3.87 23.1 274.5 0.0 2.029
2020-02-27 11:00 50.56 50.94 45.46 48.11 15.01 19.66 13.82 4.57 50.56 9.17 3.87 32.5 284.8 0.0 2.531
2020-02-27 12:00 54.66 54.97 52.21 53.35 14.06 15.24 12.77 6.44 54.66 9.04 3.47 67.3 250.4 0.0 1.139
2020-02-27 13:00 56.55 57.29 53.38 55.38 13.27 16.43 12.26 6.67 56.55 8.81 3.18 89.8 235.7 0.0 2.867
2020-02-27 14:00 59.67 60.22 56.68 58.26 12.05 16.77 11.64 7.01 59.67 11.36 3.47 70.4 235.2 0.0 2.682
2020-02-27 15:00 61.75 62.37 59.36 60.53 11.48 14.36 11.31 7.58 61.75 8.12 3.44 68.6 269.5 0.0 2.287
2020-02-27 16:00 63.46 63.77 60.94 62.46 11.27 13.41 10.97 8.5 63.46 9.69 4.16 45.7 252.7 0.0 1.685
2020-02-27 17:00 61.63 64.18 61.57 63.09 11.41 11.81 10.35 7.34 61.63 8.23 3.65 44.0 327.6 0.0 0.748
2020-02-27 18:00 58.82 62.91 58.64 61.14 13.1 13.92 10.83 8.19 58.82 4.72 1.81 93.7 253.3 0.0 0.226
2020-02-27 19:00 53.13 59.13 50.58 55.65 18.47 22.71 13.0 11.27 53.13 3.76 1.54 60.2 14.9 0.0 0.001
2020-02-27 20:00 49.62 54.0 49.37 51.93 21.77 21.94 17.39 12.05 49.62 4.5 2.37 38.4 357.4 0.0 0.0
2020-02-27 21:00 47.3 49.86 45.16 47.46 23.37 29.48 21.16 11.69 47.3 5.77 2.64 41.1 47.6 0.0 0.0
2020-02-27 22:00 41.38 47.43 41.25 43.7 32.4 34.57 23.33 13.98 41.38 4.47 1.74 89.7 71.1 0.0 0.0
2020-02-27 23:00 43.16 44.74 41.38 43.56 28.8 33.9 27.04 12.86 43.16 6.13 3.53 13.7 111.4 0.0 0.0
2020-02-28 00:00 44.74 44.8 42.85 43.7 23.54 28.97 23.51 9.68 44.74 7.7 4.47 11.5 81.2 0.0 0.0
2020-02-28 01:00 37.85 44.85 37.65 41.68 38.69 38.73 23.47 14.9 37.85 5.44 2.17 57.4 18.9 0.0 0.0
2020-02-28 02:00 36.37 38.08 35.4 36.86 42.06 44.61 37.3 15.48 36.37 5.88 2.24 64.6 346.8 0.0 0.0
2020-02-28 03:00 35.71 36.93 35.58 36.25 43.66 44.0 40.26 15.73 35.71 3.89 2.1 33.8 23.7 0.0 0.0
2020-02-28 04:00 34.18 35.89 32.9 34.65 45.83 47.22 43.38 15.45 34.18 4.5 1.88 56.9 19.8 0.0 0.0
2020-02-28 05:00 33.76 34.48 33.15 33.69 50.02 51.24 44.48 17.09 33.76 4.74 1.88 50.0 352.3 0.0 0.0
2020-02-28 06:00 38.16 38.39 33.51 36.37 37.37 50.9 37.23 14.38 38.16 8.99 4.18 18.2 340.6 0.0 0.0
2020-02-28 07:00 37.42 38.34 35.64 36.77 41.01 44.27 37.4 15.85 37.42 7.18 2.73 28.7 313.8 0.0 0.031
2020-02-28 08:00 43.77 43.84 37.24 40.12 33.09 41.52 32.78 16.58 43.77 9.53 3.0 41.1 340.7 0.0 0.478
2020-02-28 09:00 48.52 49.14 43.84 47.1 25.74 33.12 25.0 14.93 48.52 10.31 4.76 18.8 323.2 0.0 1.162
2020-02-28 10:00 53.26 53.26 48.22 50.45 21.56 26.59 21.56 14.89 53.26 9.84 4.9 19.7 310.9 0.0 1.871

Data is courtesy of the NM Climate Center and other weather station network operators. DO NOT USE IN LEGAL PROCEEDINGS